PRIVATE WETTERSTATION BILLIGHEIM-ALLFELD                       ZURCK
Wetterdaten: Freitag, 01.08.2014
Datum Zeit Temp. A. Temp. A. min Temp. A. max Feuchte A. Luftdruck Regen Wind Richtung Richtung Sonnenschein ET Solar Taupunkt Windchill Windben Empfang
01.08.2014 00:00 16,0 C 16,0 C 16,2 C 86 % 1012,8 hPa 0,0 l/m 1,6 km/h (1 Bft) NW 315 0 min 0,025 mm 0 W/m 13,7 C 16,0 C 3,2 km/h (1 Bft) 100 %
01.08.2014 00:10 15,8 C 15,8 C 16,0 C 86 % 1012,8 hPa 0,0 l/m 0,0 km/h (0 Bft) NW 315 0 min 0,000 mm 0 W/m 13,5 C 15,8 C 1,6 km/h (1 Bft) 100 %
01.08.2014 00:20 15,7 C 15,7 C 15,8 C 86 % 1012,7 hPa 0,0 l/m 0,0 km/h (0 Bft) NW 315 0 min 0,000 mm 0 W/m 13,4 C 15,7 C 3,2 km/h (1 Bft) 100 %
01.08.2014 00:30 15,5 C 15,5 C 15,7 C 87 % 1012,7 hPa 0,0 l/m 0,0 km/h (0 Bft) NW 315 0 min 0,000 mm 0 W/m 13,3 C 15,5 C 1,6 km/h (1 Bft) 96 %
01.08.2014 00:40 15,4 C 15,4 C 15,5 C 87 % 1012,7 hPa 0,0 l/m 0,0 km/h (0 Bft) NW 315 0 min 0,000 mm 0 W/m 13,2 C 15,4 C 3,2 km/h (1 Bft) 91 %
01.08.2014 00:50 15,2 C 15,2 C 15,4 C 87 % 1012,6 hPa 0,0 l/m 0,0 km/h (0 Bft) NW 315 0 min 0,000 mm 0 W/m 13,0 C 15,2 C 3,2 km/h (1 Bft) 100 %
01.08.2014 01:00 15,1 C 15,1 C 15,2 C 87 % 1012,6 hPa 0,0 l/m 0,0 km/h (0 Bft) NW 315 0 min 0,000 mm 0 W/m 13,0 C 15,1 C 3,2 km/h (1 Bft) 100 %
01.08.2014 01:10 15,1 C 15,1 C 15,1 C 87 % 1012,5 hPa 0,0 l/m 0,0 km/h (0 Bft) NW 315 0 min 0,000 mm 0 W/m 13,0 C 15,1 C 3,2 km/h (1 Bft) 100 %
01.08.2014 01:20 15,1 C 15,1 C 15,1 C 87 % 1012,4 hPa 0,0 l/m 0,0 km/h (0 Bft) NW 315 0 min 0,000 mm 0 W/m 13,0 C 15,1 C 4,8 km/h (1 Bft) 100 %
01.08.2014 01:30 15,0 C 14,9 C 15,1 C 87 % 1012,5 hPa 0,0 l/m 0,0 km/h (0 Bft) NW 315 0 min 0,000 mm 0 W/m 12,9 C 15,0 C 1,6 km/h (1 Bft) 100 %
01.08.2014 01:40 14,8 C 14,8 C 14,9 C 87 % 1012,4 hPa 0,0 l/m 0,0 km/h (0 Bft) NW 315 0 min 0,000 mm 0 W/m 12,7 C 14,8 C 3,2 km/h (1 Bft) 100 %
01.08.2014 01:50 14,8 C 14,8 C 14,8 C 87 % 1012,4 hPa 0,0 l/m 0,0 km/h (0 Bft) NW 315 0 min 0,000 mm 0 W/m 12,7 C 14,8 C 1,6 km/h (1 Bft) 100 %
01.08.2014 02:00 14,7 C 14,7 C 14,8 C 87 % 1012,3 hPa 0,0 l/m 1,6 km/h (1 Bft) NW 315 0 min 0,000 mm 0 W/m 12,6 C 14,7 C 4,8 km/h (1 Bft) 100 %
01.08.2014 02:10 14,6 C 14,6 C 14,7 C 87 % 1012,4 hPa 0,0 l/m 0,0 km/h (0 Bft) NW 315 0 min 0,000 mm 0 W/m 12,5 C 14,6 C 1,6 km/h (1 Bft) 100 %
01.08.2014 02:20 14,6 C 14,6 C 14,6 C 87 % 1012,3 hPa 0,0 l/m 1,6 km/h (1 Bft) NW 315 0 min 0,000 mm 0 W/m 12,5 C 14,6 C 4,8 km/h (1 Bft) 100 %
01.08.2014 02:30 14,5 C 14,5 C 14,6 C 87 % 1012,3 hPa 0,0 l/m 0,0 km/h (0 Bft) NW 315 0 min 0,000 mm 0 W/m 12,4 C 14,5 C 1,6 km/h (1 Bft) 100 %
01.08.2014 02:40 14,4 C 14,4 C 14,5 C 87 % 1012,3 hPa 0,0 l/m 0,0 km/h (0 Bft) NW 315 0 min 0,000 mm 0 W/m 12,3 C 14,4 C 4,8 km/h (1 Bft) 100 %
01.08.2014 02:50 14,3 C 14,3 C 14,4 C 87 % 1012,3 hPa 0,0 l/m 0,0 km/h (0 Bft) NW 315 0 min 0,000 mm 0 W/m 12,2 C 14,3 C 1,6 km/h (1 Bft) 100 %
01.08.2014 03:00 14,3 C 14,3 C 14,3 C 87 % 1012,2 hPa 0,0 l/m 0,0 km/h (0 Bft) NW 315 0 min 0,000 mm 0 W/m 12,2 C 14,3 C 3,2 km/h (1 Bft) 100 %
01.08.2014 03:10 14,3 C 14,3 C 14,3 C 87 % 1012,1 hPa 0,0 l/m 1,6 km/h (1 Bft) NW 315 0 min 0,000 mm 0 W/m 12,2 C 14,3 C 4,8 km/h (1 Bft) 100 %
01.08.2014 03:20 14,3 C 14,3 C 14,3 C 87 % 1012,1 hPa 0,0 l/m 0,0 km/h (0 Bft) NW 315 0 min 0,000 mm 0 W/m 12,2 C 14,3 C 3,2 km/h (1 Bft) 100 %
01.08.2014 03:30 14,3 C 14,3 C 14,3 C 87 % 1012,0 hPa 0,0 l/m 1,6 km/h (1 Bft) NW 315 0 min 0,000 mm 0 W/m 12,2 C 14,3 C 4,8 km/h (1 Bft) 100 %
01.08.2014 03:40 14,3 C 14,3 C 14,3 C 87 % 1012,1 hPa 0,0 l/m 0,0 km/h (0 Bft) NW 315 0 min 0,000 mm 0 W/m 12,2 C 14,3 C 4,8 km/h (1 Bft) 98 %
01.08.2014 03:50 14,2 C 14,2 C 14,3 C 87 % 1012,0 hPa 0,0 l/m 0,0 km/h (0 Bft) NW 315 0 min 0,000 mm 0 W/m 12,1 C 14,2 C 3,2 km/h (1 Bft) 99 %
01.08.2014 04:00 14,2 C 14,2 C 14,2 C 87 % 1011,9 hPa 0,0 l/m 0,0 km/h (0 Bft) NW 315 0 min 0,000 mm 0 W/m 12,1 C 14,2 C 1,6 km/h (1 Bft) 99 %
01.08.2014 04:10 14,2 C 14,2 C 14,2 C 87 % 1011,9 hPa 0,0 l/m 0,0 km/h (0 Bft) N 0 0 min 0,000 mm 0 W/m 12,1 C 14,2 C 0,0 km/h (0 Bft) 98 %
01.08.2014 04:20 14,2 C 14,2 C 14,2 C 87 % 1011,9 hPa 0,0 l/m 0,0 km/h (0 Bft) N 0 0 min 0,000 mm 0 W/m 12,1 C 14,2 C 0,0 km/h (0 Bft) 98 %
01.08.2014 04:30 14,1 C 14,1 C 14,2 C 88 % 1011,9 hPa 0,0 l/m 1,6 km/h (1 Bft) NW 315 0 min 0,000 mm 0 W/m 12,1 C 14,1 C 3,2 km/h (1 Bft) 97 %
01.08.2014 04:40 14,0 C 14,0 C 14,1 C 88 % 1012,0 hPa 0,0 l/m 0,0 km/h (0 Bft) N 0 0 min 0,000 mm 0 W/m 12,0 C 14,0 C 0,0 km/h (0 Bft) 98 %
01.08.2014 04:50 13,9 C 13,9 C 14,1 C 88 % 1011,8 hPa 0,0 l/m 0,0 km/h (0 Bft) NW 315 0 min 0,000 mm 0 W/m 11,9 C 13,9 C 1,6 km/h (1 Bft) 98 %
01.08.2014 05:00 13,9 C 13,9 C 14,0 C 88 % 1011,7 hPa 0,0 l/m 0,0 km/h (0 Bft) NW 315 0 min 0,000 mm 0 W/m 11,9 C 13,9 C 3,2 km/h (1 Bft) 98 %
01.08.2014 05:10 13,9 C 13,9 C 13,9 C 88 % 1011,8 hPa 0,0 l/m 0,0 km/h (0 Bft) NW 315 0 min 0,000 mm 0 W/m 11,9 C 13,9 C 1,6 km/h (1 Bft) 98 %
01.08.2014 05:20 13,9 C 13,9 C 13,9 C 87 % 1011,8 hPa 0,0 l/m 1,6 km/h (1 Bft) NW 315 0 min 0,000 mm 0 W/m 11,8 C 13,9 C 3,2 km/h (1 Bft) 97 %
01.08.2014 05:30 13,8 C 13,8 C 13,9 C 87 % 1011,8 hPa 0,0 l/m 0,0 km/h (0 Bft) NW 315 0 min 0,000 mm 0 W/m 11,7 C 13,8 C 1,6 km/h (1 Bft) 88 %
01.08.2014 05:40 13,8 C 13,8 C 13,8 C 87 % 1011,6 hPa 0,0 l/m 0,0 km/h (0 Bft) NW 315 0 min 0,000 mm 0 W/m 11,7 C 13,8 C 4,8 km/h (1 Bft) 97 %
01.08.2014 05:50 13,8 C 13,8 C 13,8 C 87 % 1011,7 hPa 0,0 l/m 0,0 km/h (0 Bft) NW 315 0 min 0,000 mm 0 W/m 11,7 C 13,8 C 4,8 km/h (1 Bft) 96 %
01.08.2014 06:00 13,7 C 13,7 C 13,8 C 88 % 1011,6 hPa 0,0 l/m 0,0 km/h (0 Bft) NW 315 0 min 0,000 mm 5 W/m 11,7 C 13,7 C 3,2 km/h (1 Bft) 98 %
01.08.2014 06:10 13,6 C 13,6 C 13,7 C 88 % 1011,5 hPa 0,0 l/m 0,0 km/h (0 Bft) NW 315 0 min 0,000 mm 9 W/m 11,6 C 13,6 C 1,6 km/h (1 Bft) 98 %
01.08.2014 06:20 13,6 C 13,6 C 13,6 C 88 % 1011,5 hPa 0,0 l/m 0,0 km/h (0 Bft) N-NW 337 0 min 0,000 mm 12 W/m 11,6 C 13,6 C 3,2 km/h (1 Bft) 98 %
01.08.2014 06:30 13,5 C 13,5 C 13,6 C 88 % 1011,6 hPa 0,0 l/m 0,0 km/h (0 Bft) N-NW 337 0 min 0,000 mm 19 W/m 11,6 C 13,5 C 3,2 km/h (1 Bft) 96 %
01.08.2014 06:40 13,6 C 13,5 C 13,6 C 87 % 1011,5 hPa 0,0 l/m 0,0 km/h (0 Bft) N-NW 337 0 min 0,000 mm 19 W/m 11,5 C 13,6 C 3,2 km/h (1 Bft) 98 %
01.08.2014 06:50 13,6 C 13,6 C 13,6 C 88 % 1011,5 hPa 0,0 l/m 0,0 km/h (0 Bft) N-NW 337 0 min 0,000 mm 23 W/m 11,6 C 13,6 C 3,2 km/h (1 Bft) 97 %
01.08.2014 07:00 13,6 C 13,6 C 13,6 C 88 % 1011,5 hPa 0,0 l/m 0,0 km/h (0 Bft) N-NW 337 0 min 0,000 mm 26 W/m 11,6 C 13,6 C 3,2 km/h (1 Bft) 98 %
01.08.2014 07:10 13,7 C 13,6 C 13,7 C 88 % 1011,5 hPa 0,0 l/m 1,6 km/h (1 Bft) N-NW 337 0 min 0,000 mm 35 W/m 11,7 C 13,7 C 3,2 km/h (1 Bft) 97 %
01.08.2014 07:20 13,8 C 13,7 C 13,8 C 87 % 1011,6 hPa 0,0 l/m 0,0 km/h (0 Bft) N-NW 337 0 min 0,000 mm 42 W/m 11,7 C 13,8 C 1,6 km/h (1 Bft) 98 %
01.08.2014 07:30 13,9 C 13,8 C 13,9 C 87 % 1011,7 hPa 0,0 l/m 0,0 km/h (0 Bft) N-NW 337 0 min 0,000 mm 49 W/m 11,8 C 13,9 C 1,6 km/h (1 Bft) 98 %
01.08.2014 07:40 14,1 C 13,9 C 14,1 C 87 % 1011,6 hPa 0,0 l/m 0,0 km/h (0 Bft) N-NW 337 0 min 0,000 mm 60 W/m 12,0 C 14,1 C 1,6 km/h (1 Bft) 96 %
01.08.2014 07:50 14,4 C 14,1 C 14,4 C 87 % 1011,6 hPa 0,0 l/m 0,0 km/h (0 Bft) N-NW 337 0 min 0,000 mm 76 W/m 12,3 C 14,4 C 3,2 km/h (1 Bft) 98 %
01.08.2014 08:00 14,7 C 14,4 C 14,7 C 87 % 1011,5 hPa 0,0 l/m 0,0 km/h (0 Bft) N-NW 337 0 min 0,025 mm 83 W/m 12,6 C 14,7 C 4,8 km/h (1 Bft) 97 %
01.08.2014 08:10 15,1 C 14,7 C 15,1 C 87 % 1011,5 hPa 0,0 l/m 0,0 km/h (0 Bft) N-NW 337 0 min 0,000 mm 88 W/m 13,0 C 15,1 C 1,6 km/h (1 Bft) 97 %
01.08.2014 08:20 15,4 C 15,1 C 15,4 C 87 % 1011,4 hPa 0,0 l/m 0,0 km/h (0 Bft) N-NW 337 0 min 0,000 mm 93 W/m 13,2 C 15,4 C 1,6 km/h (1 Bft) 98 %
01.08.2014 08:30 15,8 C 15,4 C 15,8 C 87 % 1011,4 hPa 0,0 l/m 0,0 km/h (0 Bft) N-NW 337 10 min 0,000 mm 153 W/m 13,6 C 15,8 C 3,2 km/h (1 Bft) 97 %
01.08.2014 08:40 16,5 C 15,8 C 16,5 C 87 % 1011,4 hPa 0,0 l/m 0,0 km/h (0 Bft) N-NW 337 10 min 0,000 mm 350 W/m 14,3 C 16,5 C 1,6 km/h (1 Bft) 98 %
01.08.2014 08:50 17,4 C 16,5 C 17,4 C 87 % 1011,4 hPa 0,0 l/m 0,0 km/h (0 Bft) N-NW 337 10 min 0,000 mm 323 W/m 15,2 C 17,4 C 1,6 km/h (1 Bft) 96 %
01.08.2014 09:00 18,2 C 17,4 C 18,2 C 87 % 1011,3 hPa 0,0 l/m 0,0 km/h (0 Bft) N-NW 337 10 min 0,102 mm 369 W/m 16,0 C 18,2 C 1,6 km/h (1 Bft) 98 %
01.08.2014 09:10 18,9 C 18,2 C 18,9 C 85 % 1011,2 hPa 0,0 l/m 0,0 km/h (0 Bft) N-NW 337 10 min 0,000 mm 364 W/m 16,3 C 18,9 C 3,2 km/h (1 Bft) 97 %
01.08.2014 09:20 19,4 C 18,9 C 19,4 C 85 % 1011,2 hPa 0,0 l/m 0,0 km/h (0 Bft) N-NW 337 10 min 0,000 mm 338 W/m 16,8 C 19,4 C 3,2 km/h (1 Bft) 97 %
01.08.2014 09:30 19,9 C 19,4 C 19,9 C 83 % 1011,2 hPa 0,0 l/m 0,0 km/h (0 Bft) N-NW 337 10 min 0,000 mm 452 W/m 16,9 C 19,9 C 3,2 km/h (1 Bft) 98 %
01.08.2014 09:40 20,6 C 19,9 C 20,6 C 83 % 1011,2 hPa 0,0 l/m 0,0 km/h (0 Bft) O-NO 67 10 min 0,000 mm 459 W/m 17,6 C 20,6 C 6,4 km/h (2 Bft) 98 %
01.08.2014 09:50 21,4 C 20,7 C 21,4 C 73 % 1011,2 hPa 0,0 l/m 0,0 km/h (0 Bft) O-SO 112 10 min 0,000 mm 520 W/m 16,4 C 21,4 C 6,4 km/h (2 Bft) 98 %
01.08.2014 10:00 21,9 C 21,4 C 21,9 C 75 % 1011,2 hPa 0,0 l/m 1,6 km/h (1 Bft) O-SO 112 10 min 0,229 mm 508 W/m 17,3 C 21,9 C 8,0 km/h (2 Bft) 96 %
01.08.2014 10:10 22,3 C 21,9 C 22,3 C 71 % 1011,2 hPa 0,0 l/m 3,2 km/h (1 Bft) O-SO 112 10 min 0,000 mm 666 W/m 16,8 C 22,3 C 9,7 km/h (2 Bft) 98 %
01.08.2014 10:20 22,8 C 22,3 C 22,8 C 70 % 1011,2 hPa 0,0 l/m 0,0 km/h (0 Bft) SO 135 10 min 0,000 mm 643 W/m 17,0 C 22,8 C 6,4 km/h (2 Bft) 97 %
01.08.2014 10:30 22,9 C 22,8 C 22,9 C 68 % 1011,2 hPa 0,0 l/m 3,2 km/h (1 Bft) SO 135 10 min 0,000 mm 722 W/m 16,7 C 22,9 C 9,7 km/h (2 Bft) 98 %
01.08.2014 10:40 23,2 C 22,9 C 23,2 C 67 % 1011,4 hPa 0,0 l/m 0,0 km/h (0 Bft) O-SO 112 10 min 0,000 mm 554 W/m 16,7 C 23,2 C 6,4 km/h (2 Bft) 97 %
01.08.2014 10:50 23,3 C 23,2 C 23,3 C 64 % 1011,3 hPa 0,0 l/m 4,8 km/h (1 Bft) SO 135 10 min 0,000 mm 647 W/m 16,1 C 23,3 C 16,1 km/h (3 Bft) 98 %
01.08.2014 11:00 23,5 C 23,3 C 23,5 C 66 % 1011,3 hPa 0,0 l/m 1,6 km/h (1 Bft) SO 135 10 min 0,356 mm 717 W/m 16,8 C 23,5 C 14,5 km/h (3 Bft) 98 %
01.08.2014 11:10 23,8 C 23,6 C 23,8 C 63 % 1011,1 hPa 0,0 l/m 3,2 km/h (1 Bft) O 90 10 min 0,000 mm 721 W/m 16,3 C 23,8 C 9,7 km/h (2 Bft) 97 %
01.08.2014 11:20 24,1 C 23,8 C 24,1 C 67 % 1011,1 hPa 0,0 l/m 1,6 km/h (1 Bft) O-SO 112 10 min 0,000 mm 721 W/m 17,6 C 24,1 C 9,7 km/h (2 Bft) 98 %
01.08.2014 11:30 24,3 C 24,1 C 24,3 C 62 % 1011,0 hPa 0,0 l/m 1,6 km/h (1 Bft) SO 135 10 min 0,000 mm 719 W/m 16,5 C 24,3 C 9,7 km/h (2 Bft) 98 %
01.08.2014 11:40 24,6 C 24,3 C 24,6 C 64 % 1010,9 hPa 0,0 l/m 0,0 km/h (0 Bft) O 90 10 min 0,000 mm 747 W/m 17,3 C 24,6 C 4,8 km/h (1 Bft) 98 %
01.08.2014 11:50 24,6 C 24,5 C 24,6 C 66 % 1010,8 hPa 0,0 l/m 1,6 km/h (1 Bft) O-SO 112 10 min 0,000 mm 754 W/m 17,8 C 24,6 C 11,3 km/h (2 Bft) 97 %
01.08.2014 12:00 24,3 C 24,3 C 24,5 C 63 % 1010,7 hPa 0,0 l/m 3,2 km/h (1 Bft) SO 135 10 min 0,381 mm 722 W/m 16,8 C 24,3 C 14,5 km/h (3 Bft) 98 %
01.08.2014 12:10 24,5 C 24,3 C 24,5 C 60 % 1010,7 hPa 0,0 l/m 0,0 km/h (0 Bft) SO 135 10 min 0,000 mm 763 W/m 16,2 C 24,5 C 8,0 km/h (2 Bft) 98 %
01.08.2014 12:20 24,6 C 24,5 C 24,6 C 59 % 1010,6 hPa 0,0 l/m 3,2 km/h (1 Bft) SO 135 10 min 0,000 mm 772 W/m 16,0 C 24,6 C 14,5 km/h (3 Bft) 97 %
01.08.2014 12:30 24,9 C 24,6 C 24,9 C 58 % 1010,7 hPa 0,0 l/m 0,0 km/h (0 Bft) SO 135 10 min 0,000 mm 821 W/m 16,1 C 24,9 C 6,4 km/h (2 Bft) 97 %
01.08.2014 12:40 25,2 C 24,9 C 25,2 C 54 % 1010,6 hPa 0,0 l/m 1,6 km/h (1 Bft) SO 135 10 min 0,000 mm 838 W/m 15,2 C 25,2 C 8,0 km/h (2 Bft) 98 %
01.08.2014 12:50 25,4 C 25,2 C 25,4 C 58 % 1010,4 hPa 0,0 l/m 1,6 km/h (1 Bft) O 90 10 min 0,000 mm 807 W/m 16,5 C 25,4 C 8,0 km/h (2 Bft) 98 %
01.08.2014 13:00 25,3 C 25,3 C 25,4 C 54 % 1010,3 hPa 0,0 l/m 0,0 km/h (0 Bft) O-SO 112 10 min 0,406 mm 666 W/m 15,3 C 25,3 C 6,4 km/h (2 Bft) 98 %
01.08.2014 13:10 25,0 C 25,0 C 25,3 C 56 % 1010,3 hPa 0,0 l/m 1,6 km/h (1 Bft) SO 135 10 min 0,000 mm 533 W/m 15,6 C 25,0 C 11,3 km/h (2 Bft) 97 %
01.08.2014 13:20 24,8 C 24,8 C 25,0 C 57 % 1010,3 hPa 0,0 l/m 0,0 km/h (0 Bft) SO 135 10 min 0,000 mm 459 W/m 15,7 C 24,8 C 9,7 km/h (2 Bft) 98 %
01.08.2014 13:30 24,8 C 24,8 C 24,8 C 54 % 1010,3 hPa 0,0 l/m 0,0 km/h (0 Bft) N 360 10 min 0,000 mm 547 W/m 14,8 C 24,8 C 1,6 km/h (1 Bft) 97 %
01.08.2014 13:40 25,1 C 24,8 C 25,1 C 57 % 1010,2 hPa 0,0 l/m 0,0 km/h (0 Bft) S-SO 157 10 min 0,000 mm 596 W/m 16,0 C 25,1 C 6,4 km/h (2 Bft) 98 %
01.08.2014 13:50 24,9 C 24,9 C 25,1 C 56 % 1010,2 hPa 0,0 l/m 4,8 km/h (1 Bft) SO 135 10 min 0,000 mm 628 W/m 15,5 C 24,9 C 11,3 km/h (2 Bft) 98 %
01.08.2014 14:00 25,0 C 24,9 C 25,0 C 52 % 1010,2 hPa 0,0 l/m 1,6 km/h (1 Bft) SO 135 10 min 0,356 mm 686 W/m 14,4 C 25,0 C 11,3 km/h (2 Bft) 97 %
01.08.2014 14:10 24,9 C 24,9 C 25,0 C 56 % 1010,2 hPa 0,0 l/m 3,2 km/h (1 Bft) SO 135 10 min 0,000 mm 671 W/m 15,5 C 24,9 C 16,1 km/h (3 Bft) 97 %
01.08.2014 14:20 24,8 C 24,8 C 24,9 C 54 % 1010,1 hPa 0,0 l/m 3,2 km/h (1 Bft) SO 135 10 min 0,000 mm 568 W/m 14,8 C 24,8 C 16,1 km/h (3 Bft) 95 %
01.08.2014 14:30 24,9 C 24,8 C 24,9 C 51 % 1010,0 hPa 0,0 l/m 1,6 km/h (1 Bft) O 90 10 min 0,000 mm 596 W/m 14,1 C 24,9 C 9,7 km/h (2 Bft) 92 %
01.08.2014 14:40 24,7 C 24,7 C 24,9 C 53 % 1010,0 hPa 0,0 l/m 4,8 km/h (1 Bft) O-SO 112 10 min 0,000 mm 589 W/m 14,5 C 24,7 C 14,5 km/h (3 Bft) 97 %
01.08.2014 14:50 24,6 C 24,6 C 24,7 C 54 % 1009,8 hPa 0,0 l/m 1,6 km/h (1 Bft) O-SO 112 10 min 0,000 mm 605 W/m 14,7 C 24,6 C 9,7 km/h (2 Bft) 97 %
01.08.2014 15:00 24,9 C 24,6 C 24,9 C 58 % 1009,7 hPa 0,0 l/m 0,0 km/h (0 Bft) S-SO 157 10 min 0,381 mm 613 W/m 16,1 C 24,9 C 1,6 km/h (1 Bft) 97 %
01.08.2014 15:10 25,1 C 24,9 C 25,1 C 54 % 1009,6 hPa 0,0 l/m 1,6 km/h (1 Bft) SO 135 10 min 0,000 mm 570 W/m 15,1 C 25,1 C 9,7 km/h (2 Bft) 98 %
01.08.2014 15:20 25,2 C 25,1 C 25,2 C 55 % 1009,7 hPa 0,0 l/m 0,0 km/h (0 Bft) O 90 10 min 0,000 mm 554 W/m 15,5 C 25,2 C 6,4 km/h (2 Bft) 98 %
01.08.2014 15:30 25,1 C 25,1 C 25,2 C 55 % 1009,7 hPa 0,0 l/m 1,6 km/h (1 Bft) S-SO 157 10 min 0,000 mm 452 W/m 15,4 C 25,1 C 8,0 km/h (2 Bft) 98 %
01.08.2014 15:40 24,9 C 24,9 C 25,2 C 55 % 1009,7 hPa 0,0 l/m 1,0 km/h (0 Bft) S-SO 153 10 min 0,000 mm 436 W/m 15,2 C 24,9 C 6,4 km/h (2 Bft) 99 %
01.08.2014 15:50 25,0 C 24,9 C 25,0 C 52 % 1009,7 hPa 0,0 l/m 0,8 km/h (0 Bft) O-SO 105 10 min 0,000 mm 406 W/m 14,4 C 25,0 C 4,8 km/h (1 Bft) 100 %
01.08.2014 16:00 24,9 C 24,9 C 25,0 C 55 % 1009,4 hPa 0,0 l/m 0,9 km/h (0 Bft) S 178 10 min 0,279 mm 359 W/m 15,2 C 24,9 C 6,4 km/h (2 Bft) 100 %
01.08.2014 16:10 24,7 C 24,7 C 24,9 C 56 % 1009,5 hPa 0,0 l/m 1,1 km/h (1 Bft) SO 144 10 min 0,000 mm 313 W/m 15,3 C 24,7 C 9,7 km/h (2 Bft) 100 %
01.08.2014 16:20 24,6 C 24,6 C 24,7 C 57 % 1009,4 hPa 0,0 l/m 0,2 km/h (0 Bft) SO 137 10 min 0,000 mm 297 W/m 15,5 C 24,6 C 4,8 km/h (1 Bft) 100 %
01.08.2014 16:30 24,4 C 24,4 C 24,6 C 53 % 1009,4 hPa 0,0 l/m 0,7 km/h (0 Bft) SO 124 10 min 0,000 mm 306 W/m 14,2 C 24,4 C 8,0 km/h (2 Bft) 100 %
01.08.2014 16:40 24,6 C 24,4 C 24,6 C 54 % 1009,4 hPa 0,0 l/m 0,0 km/h (0 Bft) SO 126 10 min 0,000 mm 301 W/m 14,7 C 24,6 C 1,6 km/h (1 Bft) 91 %
01.08.2014 16:50 24,6 C 24,6 C 24,6 C 55 % 1009,2 hPa 0,0 l/m 0,0 km/h (0 Bft) S-SO 150 10 min 0,000 mm 304 W/m 14,9 C 24,6 C 1,6 km/h (1 Bft) 100 %
01.08.2014 17:00 24,6 C 24,6 C 24,6 C 55 % 1009,2 hPa 0,0 l/m 0,7 km/h (0 Bft) SO 138 10 min 0,203 mm 315 W/m 14,9 C 24,6 C 6,4 km/h (2 Bft) 100 %
01.08.2014 17:10 24,8 C 24,6 C 24,8 C 59 % 1009,1 hPa 0,0 l/m 0,4 km/h (0 Bft) W-NW 285 10 min 0,000 mm 294 W/m 16,2 C 24,8 C 8,0 km/h (2 Bft) 100 %
01.08.2014 17:20 24,9 C 24,8 C 24,9 C 57 % 1009,0 hPa 0,0 l/m 0,0 km/h (0 Bft) NW 312 10 min 0,000 mm 255 W/m 15,8 C 24,9 C 1,6 km/h (1 Bft) 100 %
01.08.2014 17:30 25,0 C 24,9 C 25,0 C 61 % 1009,0 hPa 0,0 l/m 0,2 km/h (0 Bft) SO 137 10 min 0,000 mm 244 W/m 16,9 C 25,0 C 4,8 km/h (1 Bft) 100 %
01.08.2014 17:40 25,1 C 25,0 C 25,1 C 51 % 1008,9 hPa 0,0 l/m 1,1 km/h (1 Bft) O-SO 119 10 min 0,000 mm 230 W/m 14,2 C 25,1 C 9,7 km/h (2 Bft) 100 %
01.08.2014 17:50 25,0 C 25,0 C 25,1 C 51 % 1008,8 hPa 0,0 l/m 1,8 km/h (1 Bft) SO 128 10 min 0,000 mm 193 W/m 14,1 C 25,0 C 11,3 km/h (2 Bft) 99 %
01.08.2014 18:00 24,7 C 24,7 C 25,0 C 57 % 1008,9 hPa 0,0 l/m 0,9 km/h (0 Bft) SO 126 10 min 0,153 mm 153 W/m 15,6 C 24,7 C 9,7 km/h (2 Bft) 100 %
01.08.2014 18:10 24,5 C 24,5 C 24,7 C 57 % 1008,9 hPa 0,0 l/m 0,0 km/h (0 Bft) O-SO 123 10 min 0,000 mm 158 W/m 15,4 C 24,5 C 1,6 km/h (1 Bft) 100 %
01.08.2014 18:20 24,6 C 24,5 C 24,6 C 52 % 1008,9 hPa 0,0 l/m 0,9 km/h (0 Bft) SO 138 10 min 0,000 mm 155 W/m 14,1 C 24,6 C 6,4 km/h (2 Bft) 100 %
01.08.2014 18:30 24,8 C 24,6 C 24,8 C 51 % 1009,0 hPa 0,0 l/m 0,6 km/h (0 Bft) O-SO 118 0 min 0,000 mm 139 W/m 14,0 C 24,8 C 6,4 km/h (2 Bft) 100 %
01.08.2014 18:40 24,9 C 24,8 C 24,9 C 51 % 1008,8 hPa 0,0 l/m 0,9 km/h (0 Bft) SO 146 0 min 0,000 mm 127 W/m 14,1 C 24,9 C 8,0 km/h (2 Bft) 100 %
01.08.2014 18:50 24,8 C 24,8 C 24,9 C 53 % 1008,5 hPa 0,0 l/m 0,8 km/h (0 Bft) SO 144 10 min 0,000 mm 156 W/m 14,6 C 24,8 C 8,0 km/h (2 Bft) 99 %
01.08.2014 19:00 24,7 C 24,7 C 24,8 C 51 % 1008,6 hPa 0,0 l/m 0,5 km/h (0 Bft) SO 138 0 min 0,101 mm 95 W/m 13,9 C 24,7 C 6,4 km/h (2 Bft) 100 %
01.08.2014 19:10 24,6 C 24,6 C 24,7 C 53 % 1008,5 hPa 0,0 l/m 1,1 km/h (1 Bft) SO 128 0 min 0,000 mm 128 W/m 14,4 C 24,6 C 6,4 km/h (2 Bft) 100 %
01.08.2014 19:20 24,4 C 24,4 C 24,6 C 53 % 1008,5 hPa 0,0 l/m 0,0 km/h (0 Bft) SO 140 0 min 0,000 mm 77 W/m 14,2 C 24,4 C 1,6 km/h (1 Bft) 100 %
01.08.2014 19:30 24,3 C 24,3 C 24,4 C 56 % 1008,6 hPa 0,0 l/m 0,0 km/h (0 Bft) SO 142 0 min 0,000 mm 46 W/m 14,9 C 24,3 C 1,6 km/h (1 Bft) 100 %
01.08.2014 19:40 24,0 C 24,0 C 24,3 C 59 % 1008,6 hPa 0,0 l/m 0,1 km/h (0 Bft) SO 142 0 min 0,000 mm 40 W/m 15,5 C 24,0 C 3,2 km/h (1 Bft) 100 %
01.08.2014 19:50 23,8 C 23,8 C 24,0 C 57 % 1008,7 hPa 0,0 l/m 0,3 km/h (0 Bft) O-SO 123 0 min 0,000 mm 37 W/m 14,8 C 23,8 C 3,2 km/h (1 Bft) 100 %
01.08.2014 20:00 23,5 C 23,5 C 23,8 C 58 % 1008,6 hPa 0,0 l/m 0,2 km/h (0 Bft) O-SO 123 0 min 0,051 mm 32 W/m 14,7 C 23,5 C 3,2 km/h (1 Bft) 100 %
01.08.2014 20:10 23,2 C 23,2 C 23,5 C 59 % 1008,7 hPa 0,0 l/m 0,0 km/h (0 Bft) O-SO 115 0 min 0,000 mm 26 W/m 14,7 C 23,2 C 1,6 km/h (1 Bft) 100 %
01.08.2014 20:20 22,8 C 22,8 C 23,2 C 59 % 1008,7 hPa 0,0 l/m 0,0 km/h (0 Bft) O-SO 115 0 min 0,000 mm 21 W/m 14,4 C 22,8 C 1,6 km/h (1 Bft) 100 %
01.08.2014 20:30 22,4 C 22,4 C 22,8 C 59 % 1008,8 hPa 0,0 l/m 0,0 km/h (0 Bft) O-SO 115 0 min 0,000 mm 16 W/m 14,0 C 22,4 C 1,6 km/h (1 Bft) 100 %
01.08.2014 20:40 22,0 C 22,0 C 22,4 C 60 % 1008,8 hPa 0,0 l/m 0,0 km/h (0 Bft) O-SO 115 0 min 0,000 mm 11 W/m 13,9 C 22,0 C 1,6 km/h (1 Bft) 100 %
01.08.2014 20:50 21,6 C 21,6 C 22,0 C 61 % 1008,7 hPa 0,0 l/m 0,0 km/h (0 Bft) O-SO 115 0 min 0,000 mm 7 W/m 13,7 C 21,6 C 1,6 km/h (1 Bft) 100 %
01.08.2014 21:00 21,3 C 21,3 C 21,6 C 61 % 1008,7 hPa 0,0 l/m 0,0 km/h (0 Bft) O-SO 115 0 min 0,025 mm 0 W/m 13,5 C 21,3 C 1,6 km/h (1 Bft) 100 %
01.08.2014 21:10 21,1 C 21,1 C 21,3 C 60 % 1008,6 hPa 0,0 l/m 0,0 km/h (0 Bft) O-SO 112 0 min 0,000 mm 0 W/m 13,0 C 21,1 C 1,6 km/h (1 Bft) 97 %
01.08.2014 21:20 21,0 C 21,0 C 21,1 C 61 % 1008,6 hPa 0,0 l/m 0,0 km/h (0 Bft) O 90 0 min 0,000 mm 0 W/m 13,2 C 21,0 C 3,2 km/h (1 Bft) 97 %
01.08.2014 21:30 20,9 C 20,9 C 21,0 C 62 % 1008,7 hPa 0,0 l/m 0,0 km/h (0 Bft) N 0 0 min 0,000 mm 0 W/m 13,3 C 20,9 C 0,0 km/h (0 Bft) 98 %
01.08.2014 21:40 20,8 C 20,8 C 20,9 C 62 % 1008,7 hPa 0,0 l/m 0,0 km/h (0 Bft) O 90 0 min 0,000 mm 0 W/m 13,2 C 20,8 C 1,6 km/h (1 Bft) 97 %
01.08.2014 21:50 20,6 C 20,6 C 20,8 C 62 % 1008,7 hPa 0,0 l/m 0,0 km/h (0 Bft) N-NO 22 0 min 0,000 mm 0 W/m 13,1 C 20,6 C 6,4 km/h (2 Bft) 97 %
01.08.2014 22:00 20,4 C 20,4 C 20,6 C 63 % 1008,7 hPa 0,0 l/m 0,0 km/h (0 Bft) NO 45 0 min 0,000 mm 0 W/m 13,1 C 20,4 C 4,8 km/h (1 Bft) 98 %
01.08.2014 22:10 20,2 C 20,2 C 20,4 C 64 % 1008,6 hPa 0,0 l/m 0,0 km/h (0 Bft) NO 45 0 min 0,000 mm 0 W/m 13,2 C 20,2 C 6,4 km/h (2 Bft) 96 %
01.08.2014 22:20 20,0 C 20,0 C 20,3 C 66 % 1008,5 hPa 0,0 l/m 0,0 km/h (0 Bft) O-NO 67 0 min 0,000 mm 0 W/m 13,4 C 20,0 C 8,0 km/h (2 Bft) 97 %
01.08.2014 22:30 19,9 C 19,8 C 20,0 C 66 % 1008,6 hPa 0,0 l/m 0,0 km/h (0 Bft) S 180 0 min 0,000 mm 0 W/m 13,4 C 19,9 C 1,6 km/h (1 Bft) 97 %
01.08.2014 22:40 19,7 C 19,7 C 19,8 C 64 % 1008,6 hPa 0,0 l/m 0,0 km/h (0 Bft) O-SO 112 0 min 0,000 mm 0 W/m 12,7 C 19,7 C 6,4 km/h (2 Bft) 98 %
01.08.2014 22:50 19,6 C 19,6 C 19,7 C 66 % 1008,6 hPa 0,0 l/m 0,0 km/h (0 Bft) SO 135 0 min 0,000 mm 0 W/m 13,1 C 19,6 C 4,8 km/h (1 Bft) 98 %
01.08.2014 23:00 19,6 C 19,6 C 19,6 C 67 % 1008,6 hPa 0,0 l/m 0,0 km/h (0 Bft) O 90 0 min 0,025 mm 0 W/m 13,3 C 19,6 C 6,4 km/h (2 Bft) 98 %
01.08.2014 23:10 19,1 C 19,1 C 19,6 C 72 % 1008,6 hPa 0,0 l/m 0,0 km/h (0 Bft) N-NO 22 0 min 0,000 mm 0 W/m 13,9 C 19,1 C 8,0 km/h (2 Bft) 98 %
01.08.2014 23:20 18,4 C 18,4 C 19,1 C 74 % 1008,4 hPa 0,0 l/m 0,0 km/h (0 Bft) SW 225 0 min 0,000 mm 0 W/m 13,7 C 18,4 C 1,6 km/h (1 Bft) 97 %
01.08.2014 23:30 17,9 C 17,9 C 18,4 C 74 % 1008,6 hPa 0,0 l/m 0,0 km/h (0 Bft) NW 315 0 min 0,000 mm 0 W/m 13,2 C 17,9 C 1,6 km/h (1 Bft) 98 %
01.08.2014 23:40 17,6 C 17,6 C 17,9 C 78 % 1008,5 hPa 0,0 l/m 0,0 km/h (0 Bft) NW 315 0 min 0,000 mm 0 W/m 13,7 C 17,6 C 3,2 km/h (1 Bft) 98 %
01.08.2014 23:50 17,1 C 17,1 C 17,6 C 80 % 1008,5 hPa 0,0 l/m 0,0 km/h (0 Bft) NW 315 0 min 0,000 mm 0 W/m 13,6 C 17,1 C 1,6 km/h (1 Bft) 97 %
_ Min-Zeit 06:30 06:30 06:20 14:30 23:20 - 00:10 - - - - - 06:40 06:30 04:10 05:30
Minimum _ 13,5 C 13,5 C 13,6 C 51 % 1008,4 hPa - 0,0 km/h (0 Bft) - - - - - 11,5 C 13,5 C 0,0 km/h (0 Bft) 88 %
_ Max-Zeit 12:50 13:00 12:50 04:30 00:00 00:00 10:50 - - 08:30 13:00 12:40 11:50 12:50 10:50 00:00
Maximum _ 25,4 C 25,3 C 25,4 C 88 % 1012,8 hPa 0,0 l/m 4,8 km/h
SO (1 Bft)
- - 10 min 0,406 mm 838 W/m 17,8 C 25,4 C 16,1 km/h
SO (3 Bft)
100 %
Durchschnitt _ 19,9 C 19,8 C 20,0 C 71 % 1010,5 hPa #0,0 l/m 0,6 km/h (0 Bft) SO - #10:10 h #3,098 mm 354 W/m 14,1 C 19,9 C 5,0 km/h (1 Bft) 98 %
PRIVATE WETTERSTATION BILLIGHEIM-ALLFELD - www.neckar-odenwald-wetter.de - Holger Sonntag